sensor_id;sensor_type;location;lat;lon;timestamp;P1;durP1;ratioP1;P2;durP2;ratioP2
75772;SDS011;64381;0.000;0.000;2023-04-03T00:00:40;2.97;;;1.50;;
75772;SDS011;64381;0.000;0.000;2023-04-03T00:03:05;3.00;;;1.30;;
75772;SDS011;64381;0.000;0.000;2023-04-03T00:05:31;3.10;;;1.40;;
75772;SDS011;64381;0.000;0.000;2023-04-03T00:07:56;2.70;;;1.30;;
75772;SDS011;64381;0.000;0.000;2023-04-03T00:10:22;3.10;;;1.40;;
75772;SDS011;64381;0.000;0.000;2023-04-03T00:12:47;3.33;;;1.40;;
75772;SDS011;64381;0.000;0.000;2023-04-03T00:15:12;2.90;;;1.37;;
75772;SDS011;64381;0.000;0.000;2023-04-03T00:17:38;2.87;;;1.40;;
75772;SDS011;64381;0.000;0.000;2023-04-03T00:20:03;2.63;;;1.27;;
75772;SDS011;64381;0.000;0.000;2023-04-03T00:22:29;3.03;;;1.20;;
75772;SDS011;64381;0.000;0.000;2023-04-03T00:24:55;3.00;;;1.37;;
75772;SDS011;64381;0.000;0.000;2023-04-03T00:27:20;3.13;;;1.60;;
75772;SDS011;64381;0.000;0.000;2023-04-03T00:29:45;2.93;;;1.30;;
75772;SDS011;64381;0.000;0.000;2023-04-03T00:32:10;2.90;;;1.37;;
75772;SDS011;64381;0.000;0.000;2023-04-03T00:34:36;2.90;;;1.30;;
75772;SDS011;64381;0.000;0.000;2023-04-03T00:37:01;2.87;;;1.43;;
75772;SDS011;64381;0.000;0.000;2023-04-03T00:39:26;2.90;;;1.30;;
75772;SDS011;64381;0.000;0.000;2023-04-03T00:41:52;2.83;;;1.40;;
75772;SDS011;64381;0.000;0.000;2023-04-03T00:46:46;2.90;;;1.33;;
75772;SDS011;64381;0.000;0.000;2023-04-03T00:49:12;3.10;;;1.67;;
75772;SDS011;64381;0.000;0.000;2023-04-03T00:51:37;3.63;;;1.57;;
75772;SDS011;64381;0.000;0.000;2023-04-03T00:54:03;3.00;;;1.50;;
75772;SDS011;64381;0.000;0.000;2023-04-03T00:56:31;3.40;;;1.60;;
75772;SDS011;64381;0.000;0.000;2023-04-03T00:58:59;2.80;;;1.30;;
75772;SDS011;64381;0.000;0.000;2023-04-03T01:01:27;2.90;;;1.42;;
75772;SDS011;64381;0.000;0.000;2023-04-03T01:03:53;3.63;;;1.45;;
75772;SDS011;64381;0.000;0.000;2023-04-03T01:06:20;2.90;;;1.65;;
75772;SDS011;64381;0.000;0.000;2023-04-03T01:08:49;2.80;;;1.30;;
75772;SDS011;64381;0.000;0.000;2023-04-03T01:11:15;3.38;;;1.40;;
75772;SDS011;64381;0.000;0.000;2023-04-03T01:13:40;3.00;;;1.40;;
75772;SDS011;64381;0.000;0.000;2023-04-03T01:16:06;3.00;;;1.33;;
75772;SDS011;64381;0.000;0.000;2023-04-03T01:18:32;2.90;;;1.45;;
75772;SDS011;64381;0.000;0.000;2023-04-03T01:24:02;3.33;;;1.40;;
75772;SDS011;64381;0.000;0.000;2023-04-03T01:26:29;2.80;;;1.30;;
75772;SDS011;64381;0.000;0.000;2023-04-03T01:28:55;2.83;;;1.40;;
75772;SDS011;64381;0.000;0.000;2023-04-03T01:31:27;3.03;;;1.53;;
75772;SDS011;64381;0.000;0.000;2023-04-03T01:33:56;3.03;;;1.40;;
75772;SDS011;64381;0.000;0.000;2023-04-03T01:36:23;2.70;;;1.40;;
75772;SDS011;64381;0.000;0.000;2023-04-03T01:38:52;3.10;;;1.48;;
75772;SDS011;64381;0.000;0.000;2023-04-03T01:41:18;3.17;;;1.50;;
75772;SDS011;64381;0.000;0.000;2023-04-03T01:43:44;3.10;;;1.40;;
75772;SDS011;64381;0.000;0.000;2023-04-03T01:46:09;3.20;;;1.50;;
75772;SDS011;64381;0.000;0.000;2023-04-03T01:48:34;3.27;;;1.70;;
75772;SDS011;64381;0.000;0.000;2023-04-03T01:51:00;4.30;;;1.60;;
75772;SDS011;64381;0.000;0.000;2023-04-03T01:53:25;3.27;;;1.50;;
75772;SDS011;64381;0.000;0.000;2023-04-03T01:55:50;3.90;;;1.53;;
75772;SDS011;64381;0.000;0.000;2023-04-03T01:58:16;3.13;;;1.63;;
75772;SDS011;64381;0.000;0.000;2023-04-03T02:00:41;2.97;;;1.50;;
75772;SDS011;64381;0.000;0.000;2023-04-03T02:03:06;3.17;;;1.53;;
75772;SDS011;64381;0.000;0.000;2023-04-03T02:05:32;3.60;;;1.50;;
75772;SDS011;64381;0.000;0.000;2023-04-03T02:07:57;3.30;;;1.60;;
75772;SDS011;64381;0.000;0.000;2023-04-03T02:10:23;3.30;;;1.60;;
75772;SDS011;64381;0.000;0.000;2023-04-03T02:12:48;3.23;;;1.60;;
75772;SDS011;64381;0.000;0.000;2023-04-03T02:15:13;3.13;;;1.50;;
75772;SDS011;64381;0.000;0.000;2023-04-03T02:17:38;2.83;;;1.40;;
75772;SDS011;64381;0.000;0.000;2023-04-03T02:20:04;3.13;;;1.27;;
75772;SDS011;64381;0.000;0.000;2023-04-03T02:22:29;3.15;;;1.40;;
75772;SDS011;64381;0.000;0.000;2023-04-03T02:24:55;3.10;;;1.40;;
75772;SDS011;64381;0.000;0.000;2023-04-03T02:27:20;3.40;;;1.50;;
75772;SDS011;64381;0.000;0.000;2023-04-03T02:29:45;2.90;;;1.50;;
75772;SDS011;64381;0.000;0.000;2023-04-03T02:32:10;2.93;;;1.50;;
75772;SDS011;64381;0.000;0.000;2023-04-03T02:34:35;3.13;;;1.53;;
75772;SDS011;64381;0.000;0.000;2023-04-03T02:37:01;3.30;;;1.80;;
75772;SDS011;64381;0.000;0.000;2023-04-03T02:39:26;3.10;;;1.40;;
75772;SDS011;64381;0.000;0.000;2023-04-03T02:41:51;3.23;;;1.50;;
75772;SDS011;64381;0.000;0.000;2023-04-03T02:44:16;2.80;;;1.33;;
75772;SDS011;64381;0.000;0.000;2023-04-03T02:46:42;3.07;;;1.57;;
75772;SDS011;64381;0.000;0.000;2023-04-03T02:49:07;3.27;;;1.60;;
75772;SDS011;64381;0.000;0.000;2023-04-03T02:51:32;3.03;;;1.37;;
75772;SDS011;64381;0.000;0.000;2023-04-03T02:53:57;3.20;;;1.50;;
75772;SDS011;64381;0.000;0.000;2023-04-03T02:56:22;3.20;;;1.50;;
75772;SDS011;64381;0.000;0.000;2023-04-03T02:58:48;2.90;;;1.40;;
75772;SDS011;64381;0.000;0.000;2023-04-03T03:01:13;2.93;;;1.40;;
75772;SDS011;64381;0.000;0.000;2023-04-03T03:03:38;2.83;;;1.40;;
75772;SDS011;64381;0.000;0.000;2023-04-03T03:06:07;3.30;;;1.60;;
75772;SDS011;64381;0.000;0.000;2023-04-03T03:08:35;3.03;;;1.58;;
75772;SDS011;64381;0.000;0.000;2023-04-03T03:11:01;3.20;;;1.50;;
75772;SDS011;64381;0.000;0.000;2023-04-03T03:13:27;4.03;;;1.50;;
75772;SDS011;64381;0.000;0.000;2023-04-03T03:15:52;3.10;;;1.60;;
75772;SDS011;64381;0.000;0.000;2023-04-03T03:18:18;3.20;;;1.43;;
75772;SDS011;64381;0.000;0.000;2023-04-03T03:20:43;2.90;;;1.40;;
75772;SDS011;64381;0.000;0.000;2023-04-03T03:23:09;3.13;;;1.43;;
75772;SDS011;64381;0.000;0.000;2023-04-03T03:25:41;3.33;;;1.70;;
75772;SDS011;64381;0.000;0.000;2023-04-03T03:28:06;3.30;;;1.50;;
75772;SDS011;64381;0.000;0.000;2023-04-03T03:30:31;2.78;;;1.40;;
75772;SDS011;64381;0.000;0.000;2023-04-03T03:32:57;3.73;;;1.70;;
75772;SDS011;64381;0.000;0.000;2023-04-03T03:35:22;3.70;;;1.40;;
75772;SDS011;64381;0.000;0.000;2023-04-03T03:37:48;3.00;;;1.57;;
75772;SDS011;64381;0.000;0.000;2023-04-03T03:40:13;2.90;;;1.50;;
75772;SDS011;64381;0.000;0.000;2023-04-03T03:42:38;3.23;;;1.50;;
75772;SDS011;64381;0.000;0.000;2023-04-03T03:45:04;3.10;;;1.50;;
75772;SDS011;64381;0.000;0.000;2023-04-03T03:47:30;2.83;;;1.45;;
75772;SDS011;64381;0.000;0.000;2023-04-03T03:49:55;3.33;;;1.60;;
75772;SDS011;64381;0.000;0.000;2023-04-03T03:52:20;3.13;;;1.47;;
75772;SDS011;64381;0.000;0.000;2023-04-03T03:54:46;3.00;;;1.37;;
75772;SDS011;64381;0.000;0.000;2023-04-03T03:57:11;3.87;;;1.63;;
75772;SDS011;64381;0.000;0.000;2023-04-03T03:59:36;3.50;;;1.60;;
75772;SDS011;64381;0.000;0.000;2023-04-03T04:04:29;3.50;;;1.63;;
75772;SDS011;64381;0.000;0.000;2023-04-03T04:06:55;3.13;;;1.70;;
75772;SDS011;64381;0.000;0.000;2023-04-03T04:09:20;2.83;;;1.50;;
75772;SDS011;64381;0.000;0.000;2023-04-03T04:11:45;3.00;;;1.40;;
75772;SDS011;64381;0.000;0.000;2023-04-03T04:14:10;2.93;;;1.30;;
75772;SDS011;64381;0.000;0.000;2023-04-03T04:16:35;3.20;;;1.50;;
75772;SDS011;64381;0.000;0.000;2023-04-03T04:19:01;3.60;;;1.57;;
75772;SDS011;64381;0.000;0.000;2023-04-03T04:21:26;2.93;;;1.50;;
75772;SDS011;64381;0.000;0.000;2023-04-03T04:23:51;2.97;;;1.50;;
75772;SDS011;64381;0.000;0.000;2023-04-03T04:26:16;3.20;;;1.50;;
75772;SDS011;64381;0.000;0.000;2023-04-03T04:28:41;3.10;;;1.60;;
75772;SDS011;64381;0.000;0.000;2023-04-03T04:31:07;3.20;;;1.53;;
75772;SDS011;64381;0.000;0.000;2023-04-03T04:33:32;3.13;;;1.50;;
75772;SDS011;64381;0.000;0.000;2023-04-03T04:35:57;3.13;;;1.40;;
75772;SDS011;64381;0.000;0.000;2023-04-03T04:38:22;3.37;;;1.50;;
75772;SDS011;64381;0.000;0.000;2023-04-03T04:40:48;3.20;;;1.50;;
75772;SDS011;64381;0.000;0.000;2023-04-03T04:43:13;3.10;;;1.43;;
75772;SDS011;64381;0.000;0.000;2023-04-03T04:45:38;3.57;;;1.70;;
75772;SDS011;64381;0.000;0.000;2023-04-03T04:48:04;2.83;;;1.63;;
75772;SDS011;64381;0.000;0.000;2023-04-03T04:50:29;3.53;;;1.60;;
75772;SDS011;64381;0.000;0.000;2023-04-03T04:52:54;4.43;;;1.60;;
75772;SDS011;64381;0.000;0.000;2023-04-03T04:55:19;3.13;;;1.43;;
75772;SDS011;64381;0.000;0.000;2023-04-03T04:57:45;3.17;;;1.37;;
75772;SDS011;64381;0.000;0.000;2023-04-03T05:00:10;3.33;;;1.57;;
75772;SDS011;64381;0.000;0.000;2023-04-03T05:02:36;3.20;;;1.45;;
75772;SDS011;64381;0.000;0.000;2023-04-03T05:05:01;3.30;;;1.50;;
75772;SDS011;64381;0.000;0.000;2023-04-03T05:07:26;3.30;;;1.47;;
75772;SDS011;64381;0.000;0.000;2023-04-03T05:09:51;3.27;;;1.70;;
75772;SDS011;64381;0.000;0.000;2023-04-03T05:12:17;3.37;;;1.60;;
75772;SDS011;64381;0.000;0.000;2023-04-03T05:14:42;3.03;;;1.43;;
75772;SDS011;64381;0.000;0.000;2023-04-03T05:17:07;2.90;;;1.50;;
75772;SDS011;64381;0.000;0.000;2023-04-03T05:19:32;3.33;;;1.80;;
75772;SDS011;64381;0.000;0.000;2023-04-03T05:21:58;3.00;;;1.43;;
75772;SDS011;64381;0.000;0.000;2023-04-03T05:24:23;3.00;;;1.60;;
75772;SDS011;64381;0.000;0.000;2023-04-03T05:26:48;3.20;;;1.67;;
75772;SDS011;64381;0.000;0.000;2023-04-03T05:29:13;2.90;;;1.67;;
75772;SDS011;64381;0.000;0.000;2023-04-03T05:31:38;3.23;;;1.60;;
75772;SDS011;64381;0.000;0.000;2023-04-03T05:34:04;3.07;;;1.50;;
75772;SDS011;64381;0.000;0.000;2023-04-03T05:36:29;3.00;;;1.60;;
75772;SDS011;64381;0.000;0.000;2023-04-03T05:38:54;3.13;;;1.50;;
75772;SDS011;64381;0.000;0.000;2023-04-03T05:41:19;2.97;;;1.30;;
75772;SDS011;64381;0.000;0.000;2023-04-03T05:43:44;3.00;;;1.60;;
75772;SDS011;64381;0.000;0.000;2023-04-03T05:46:11;3.23;;;1.63;;
75772;SDS011;64381;0.000;0.000;2023-04-03T05:48:37;3.03;;;1.45;;
75772;SDS011;64381;0.000;0.000;2023-04-03T05:51:03;3.13;;;1.60;;
75772;SDS011;64381;0.000;0.000;2023-04-03T05:53:29;3.35;;;1.48;;
75772;SDS011;64381;0.000;0.000;2023-04-03T05:55:57;3.13;;;1.55;;
75772;SDS011;64381;0.000;0.000;2023-04-03T05:58:23;3.30;;;1.60;;
75772;SDS011;64381;0.000;0.000;2023-04-03T06:00:48;3.20;;;1.70;;
75772;SDS011;64381;0.000;0.000;2023-04-03T06:03:13;2.90;;;1.57;;
75772;SDS011;64381;0.000;0.000;2023-04-03T06:05:38;3.17;;;1.50;;
75772;SDS011;64381;0.000;0.000;2023-04-03T06:08:04;3.23;;;1.57;;
75772;SDS011;64381;0.000;0.000;2023-04-03T06:10:29;4.90;;;1.60;;
75772;SDS011;64381;0.000;0.000;2023-04-03T06:12:54;3.80;;;1.60;;
75772;SDS011;64381;0.000;0.000;2023-04-03T06:15:20;4.80;;;1.60;;
75772;SDS011;64381;0.000;0.000;2023-04-03T06:17:45;2.78;;;1.48;;
75772;SDS011;64381;0.000;0.000;2023-04-03T06:20:11;3.77;;;1.77;;
75772;SDS011;64381;0.000;0.000;2023-04-03T06:22:36;3.13;;;1.60;;
75772;SDS011;64381;0.000;0.000;2023-04-03T06:25:02;3.30;;;1.60;;
75772;SDS011;64381;0.000;0.000;2023-04-03T06:27:27;3.90;;;1.57;;
75772;SDS011;64381;0.000;0.000;2023-04-03T06:29:52;3.80;;;1.70;;
75772;SDS011;64381;0.000;0.000;2023-04-03T06:32:17;2.93;;;1.47;;
75772;SDS011;64381;0.000;0.000;2023-04-03T06:34:43;3.10;;;1.30;;
75772;SDS011;64381;0.000;0.000;2023-04-03T06:37:15;3.17;;;1.60;;
75772;SDS011;64381;0.000;0.000;2023-04-03T06:39:42;2.90;;;1.60;;
75772;SDS011;64381;0.000;0.000;2023-04-03T06:42:07;3.00;;;1.60;;
75772;SDS011;64381;0.000;0.000;2023-04-03T06:44:32;2.90;;;1.50;;
75772;SDS011;64381;0.000;0.000;2023-04-03T06:46:58;3.27;;;1.70;;
75772;SDS011;64381;0.000;0.000;2023-04-03T06:49:23;3.60;;;1.70;;
75772;SDS011;64381;0.000;0.000;2023-04-03T06:51:48;3.00;;;1.57;;
75772;SDS011;64381;0.000;0.000;2023-04-03T06:54:13;4.20;;;1.70;;
75772;SDS011;64381;0.000;0.000;2023-04-03T06:56:38;3.20;;;1.70;;
75772;SDS011;64381;0.000;0.000;2023-04-03T06:59:04;3.03;;;1.50;;
75772;SDS011;64381;0.000;0.000;2023-04-03T07:01:29;3.17;;;1.47;;
75772;SDS011;64381;0.000;0.000;2023-04-03T07:03:55;3.67;;;1.77;;
75772;SDS011;64381;0.000;0.000;2023-04-03T07:06:20;3.20;;;1.40;;
75772;SDS011;64381;0.000;0.000;2023-04-03T07:08:46;2.90;;;1.50;;
75772;SDS011;64381;0.000;0.000;2023-04-03T07:11:12;3.20;;;1.43;;
75772;SDS011;64381;0.000;0.000;2023-04-03T07:13:37;3.33;;;1.55;;
75772;SDS011;64381;0.000;0.000;2023-04-03T07:16:03;3.30;;;1.53;;
75772;SDS011;64381;0.000;0.000;2023-04-03T07:18:29;3.10;;;1.50;;
75772;SDS011;64381;0.000;0.000;2023-04-03T07:20:54;3.30;;;1.40;;
75772;SDS011;64381;0.000;0.000;2023-04-03T07:23:19;3.27;;;1.50;;
75772;SDS011;64381;0.000;0.000;2023-04-03T07:25:45;3.23;;;1.50;;
75772;SDS011;64381;0.000;0.000;2023-04-03T07:28:12;3.30;;;1.60;;
75772;SDS011;64381;0.000;0.000;2023-04-03T07:30:44;3.00;;;1.40;;
75772;SDS011;64381;0.000;0.000;2023-04-03T07:33:26;2.95;;;1.50;;
75772;SDS011;64381;0.000;0.000;2023-04-03T07:35:51;3.03;;;1.40;;
75772;SDS011;64381;0.000;0.000;2023-04-03T07:38:16;3.53;;;1.77;;
75772;SDS011;64381;0.000;0.000;2023-04-03T07:40:46;3.40;;;1.60;;
75772;SDS011;64381;0.000;0.000;2023-04-03T07:43:12;3.42;;;1.50;;
75772;SDS011;64381;0.000;0.000;2023-04-03T07:45:37;3.17;;;1.50;;
75772;SDS011;64381;0.000;0.000;2023-04-03T07:48:03;2.90;;;1.40;;
75772;SDS011;64381;0.000;0.000;2023-04-03T07:50:28;3.47;;;1.70;;
75772;SDS011;64381;0.000;0.000;2023-04-03T07:52:53;3.73;;;1.90;;
75772;SDS011;64381;0.000;0.000;2023-04-03T07:55:18;2.97;;;1.50;;
75772;SDS011;64381;0.000;0.000;2023-04-03T07:57:44;3.13;;;1.60;;
75772;SDS011;64381;0.000;0.000;2023-04-03T08:00:09;3.27;;;1.50;;
75772;SDS011;64381;0.000;0.000;2023-04-03T08:02:35;3.08;;;1.50;;
75772;SDS011;64381;0.000;0.000;2023-04-03T08:05:01;3.07;;;1.40;;
75772;SDS011;64381;0.000;0.000;2023-04-03T08:07:26;3.00;;;1.40;;
75772;SDS011;64381;0.000;0.000;2023-04-03T08:09:51;3.17;;;1.60;;
75772;SDS011;64381;0.000;0.000;2023-04-03T08:12:16;3.47;;;1.30;;
75772;SDS011;64381;0.000;0.000;2023-04-03T08:14:42;3.28;;;1.80;;
75772;SDS011;64381;0.000;0.000;2023-04-03T08:17:07;3.40;;;1.60;;
75772;SDS011;64381;0.000;0.000;2023-04-03T08:19:33;2.70;;;1.30;;
75772;SDS011;64381;0.000;0.000;2023-04-03T08:21:59;2.83;;;1.50;;
75772;SDS011;64381;0.000;0.000;2023-04-03T08:24:24;2.97;;;1.37;;
75772;SDS011;64381;0.000;0.000;2023-04-03T08:26:50;3.93;;;1.70;;
75772;SDS011;64381;0.000;0.000;2023-04-03T08:29:15;3.67;;;1.80;;
75772;SDS011;64381;0.000;0.000;2023-04-03T08:31:40;3.60;;;1.50;;
75772;SDS011;64381;0.000;0.000;2023-04-03T08:34:05;3.30;;;1.40;;
75772;SDS011;64381;0.000;0.000;2023-04-03T08:36:30;3.03;;;1.40;;
75772;SDS011;64381;0.000;0.000;2023-04-03T08:38:56;3.10;;;1.40;;
75772;SDS011;64381;0.000;0.000;2023-04-03T08:41:35;3.00;;;1.60;;
75772;SDS011;64381;0.000;0.000;2023-04-03T08:46:35;3.22;;;1.60;;
75772;SDS011;64381;0.000;0.000;2023-04-03T08:52:09;3.08;;;1.50;;
75772;SDS011;64381;0.000;0.000;2023-04-03T08:54:37;3.17;;;1.60;;
75772;SDS011;64381;0.000;0.000;2023-04-03T08:57:14;3.42;;;1.70;;
75772;SDS011;64381;0.000;0.000;2023-04-03T08:59:39;3.10;;;1.50;;
75772;SDS011;64381;0.000;0.000;2023-04-03T09:02:14;4.50;;;1.80;;
75772;SDS011;64381;0.000;0.000;2023-04-03T09:04:48;2.90;;;1.38;;
75772;SDS011;64381;0.000;0.000;2023-04-03T09:07:15;2.87;;;1.50;;
75772;SDS011;64381;0.000;0.000;2023-04-03T09:09:48;2.90;;;1.35;;
75772;SDS011;64381;0.000;0.000;2023-04-03T09:17:37;3.20;;;1.70;;
75772;SDS011;64381;0.000;0.000;2023-04-03T09:20:25;2.97;;;1.40;;
75772;SDS011;64381;0.000;0.000;2023-04-03T09:23:15;3.53;;;1.60;;
75772;SDS011;64381;0.000;0.000;2023-04-03T09:25:46;3.10;;;1.50;;
75772;SDS011;64381;0.000;0.000;2023-04-03T09:28:11;3.50;;;1.53;;
75772;SDS011;64381;0.000;0.000;2023-04-03T09:30:37;2.77;;;1.40;;
75772;SDS011;64381;0.000;0.000;2023-04-03T09:33:02;3.17;;;1.50;;
75772;SDS011;64381;0.000;0.000;2023-04-03T09:35:29;2.97;;;1.30;;
75772;SDS011;64381;0.000;0.000;2023-04-03T09:38:00;2.90;;;1.40;;
75772;SDS011;64381;0.000;0.000;2023-04-03T09:40:40;3.20;;;1.60;;
75772;SDS011;64381;0.000;0.000;2023-04-03T09:45:51;3.28;;;1.70;;
75772;SDS011;64381;0.000;0.000;2023-04-03T09:48:22;3.47;;;1.70;;
75772;SDS011;64381;0.000;0.000;2023-04-03T09:50:56;3.03;;;1.40;;
75772;SDS011;64381;0.000;0.000;2023-04-03T09:55:57;3.03;;;1.50;;
75772;SDS011;64381;0.000;0.000;2023-04-03T09:58:26;3.28;;;1.50;;
75772;SDS011;64381;0.000;0.000;2023-04-03T10:00:58;3.10;;;1.67;;
75772;SDS011;64381;0.000;0.000;2023-04-03T10:05:56;4.30;;;1.80;;
75772;SDS011;64381;0.000;0.000;2023-04-03T10:08:23;3.38;;;1.73;;
75772;SDS011;64381;0.000;0.000;2023-04-03T10:11:10;3.00;;;1.55;;
75772;SDS011;64381;0.000;0.000;2023-04-03T10:13:58;2.85;;;1.50;;
75772;SDS011;64381;0.000;0.000;2023-04-03T10:16:25;3.63;;;1.70;;
75772;SDS011;64381;0.000;0.000;2023-04-03T10:22:02;3.22;;;1.42;;
75772;SDS011;64381;0.000;0.000;2023-04-03T10:24:36;3.00;;;1.60;;
75772;SDS011;64381;0.000;0.000;2023-04-03T10:27:17;3.17;;;1.58;;
75772;SDS011;64381;0.000;0.000;2023-04-03T10:30:04;3.53;;;1.70;;
75772;SDS011;64381;0.000;0.000;2023-04-03T10:32:57;3.38;;;1.60;;
75772;SDS011;64381;0.000;0.000;2023-04-03T10:35:42;3.20;;;1.60;;
75772;SDS011;64381;0.000;0.000;2023-04-03T10:38:29;3.30;;;1.70;;
75772;SDS011;64381;0.000;0.000;2023-04-03T10:41:17;2.83;;;1.52;;
75772;SDS011;64381;0.000;0.000;2023-04-03T10:46:53;3.80;;;1.60;;
75772;SDS011;64381;0.000;0.000;2023-04-03T10:52:40;3.42;;;1.40;;
75772;SDS011;64381;0.000;0.000;2023-04-03T10:55:24;3.28;;;1.58;;
75772;SDS011;64381;0.000;0.000;2023-04-03T10:57:58;2.93;;;1.50;;
75772;SDS011;64381;0.000;0.000;2023-04-03T11:00:33;3.20;;;1.63;;
75772;SDS011;64381;0.000;0.000;2023-04-03T11:03:05;3.38;;;1.70;;
75772;SDS011;64381;0.000;0.000;2023-04-03T11:05:37;3.00;;;1.40;;
75772;SDS011;64381;0.000;0.000;2023-04-03T11:08:53;3.22;;;1.50;;
75772;SDS011;64381;0.000;0.000;2023-04-03T11:11:09;3.40;;;1.52;;
75772;SDS011;64381;0.000;0.000;2023-04-03T11:13:41;3.10;;;1.50;;
75772;SDS011;64381;0.000;0.000;2023-04-03T11:16:13;3.15;;;1.48;;
75772;SDS011;64381;0.000;0.000;2023-04-03T11:18:46;3.10;;;1.57;;
75772;SDS011;64381;0.000;0.000;2023-04-03T11:21:28;3.00;;;1.38;;
75772;SDS011;64381;0.000;0.000;2023-04-03T11:23:57;3.13;;;1.60;;
75772;SDS011;64381;0.000;0.000;2023-04-03T11:26:26;3.17;;;1.42;;
75772;SDS011;64381;0.000;0.000;2023-04-03T11:28:56;2.72;;;1.30;;
75772;SDS011;64381;0.000;0.000;2023-04-03T11:31:29;2.80;;;1.37;;
75772;SDS011;64381;0.000;0.000;2023-04-03T11:36:31;2.97;;;1.50;;
75772;SDS011;64381;0.000;0.000;2023-04-03T11:39:01;3.30;;;1.38;;
75772;SDS011;64381;0.000;0.000;2023-04-03T11:41:35;3.45;;;1.65;;
75772;SDS011;64381;0.000;0.000;2023-04-03T11:44:01;3.17;;;1.50;;
75772;SDS011;64381;0.000;0.000;2023-04-03T11:46:50;2.95;;;1.60;;
75772;SDS011;64381;0.000;0.000;2023-04-03T11:53:03;4.20;;;1.60;;
75772;SDS011;64381;0.000;0.000;2023-04-03T12:05:53;2.97;;;1.40;;
75772;SDS011;64381;0.000;0.000;2023-04-03T12:13:33;2.80;;;1.50;;
75772;SDS011;64381;0.000;0.000;2023-04-03T12:15:58;3.13;;;1.40;;
75772;SDS011;64381;0.000;0.000;2023-04-03T12:21:09;3.17;;;1.40;;
75772;SDS011;64381;0.000;0.000;2023-04-03T12:23:37;3.10;;;1.52;;
75772;SDS011;64381;0.000;0.000;2023-04-03T12:26:23;3.43;;;1.50;;
75772;SDS011;64381;0.000;0.000;2023-04-03T12:28:52;3.10;;;1.60;;
75772;SDS011;64381;0.000;0.000;2023-04-03T12:31:20;3.00;;;1.48;;
75772;SDS011;64381;0.000;0.000;2023-04-03T12:33:52;3.85;;;1.52;;
75772;SDS011;64381;0.000;0.000;2023-04-03T12:36:36;3.67;;;2.35;;
75772;SDS011;64381;0.000;0.000;2023-04-03T12:39:14;2.80;;;1.50;;
75772;SDS011;64381;0.000;0.000;2023-04-03T12:42:14;3.35;;;1.40;;
75772;SDS011;64381;0.000;0.000;2023-04-03T12:45:17;3.88;;;1.50;;
75772;SDS011;64381;0.000;0.000;2023-04-03T12:47:45;2.92;;;1.40;;
75772;SDS011;64381;0.000;0.000;2023-04-03T12:50:20;2.80;;;1.50;;
75772;SDS011;64381;0.000;0.000;2023-04-03T12:53:25;4.07;;;1.43;;
75772;SDS011;64381;0.000;0.000;2023-04-03T12:55:45;3.22;;;1.50;;
75772;SDS011;64381;0.000;0.000;2023-04-03T12:58:14;3.10;;;1.53;;
75772;SDS011;64381;0.000;0.000;2023-04-03T13:00:58;3.15;;;1.58;;
75772;SDS011;64381;0.000;0.000;2023-04-03T13:03:27;3.00;;;1.30;;
75772;SDS011;64381;0.000;0.000;2023-04-03T13:06:00;3.53;;;1.55;;
75772;SDS011;64381;0.000;0.000;2023-04-03T13:08:27;3.07;;;1.50;;
75772;SDS011;64381;0.000;0.000;2023-04-03T13:10:54;3.17;;;1.70;;
75772;SDS011;64381;0.000;0.000;2023-04-03T13:13:28;2.90;;;1.60;;
75772;SDS011;64381;0.000;0.000;2023-04-03T13:15:54;2.95;;;1.55;;
75772;SDS011;64381;0.000;0.000;2023-04-03T13:18:30;3.03;;;1.37;;
75772;SDS011;64381;0.000;0.000;2023-04-03T13:20:59;3.17;;;1.60;;
75772;SDS011;64381;0.000;0.000;2023-04-03T13:23:27;3.20;;;1.45;;
75772;SDS011;64381;0.000;0.000;2023-04-03T13:25:54;3.10;;;1.50;;
75772;SDS011;64381;0.000;0.000;2023-04-03T13:28:21;3.20;;;1.45;;
75772;SDS011;64381;0.000;0.000;2023-04-03T13:30:59;2.97;;;1.50;;
75772;SDS011;64381;0.000;0.000;2023-04-03T13:33:29;3.28;;;1.60;;
75772;SDS011;64381;0.000;0.000;2023-04-03T13:35:58;2.90;;;1.40;;
75772;SDS011;64381;0.000;0.000;2023-04-03T13:38:28;2.95;;;1.38;;
75772;SDS011;64381;0.000;0.000;2023-04-03T13:40:56;3.10;;;1.60;;
75772;SDS011;64381;0.000;0.000;2023-04-03T13:43:24;3.17;;;1.38;;
75772;SDS011;64381;0.000;0.000;2023-04-03T13:48:23;2.97;;;1.30;;
75772;SDS011;64381;0.000;0.000;2023-04-03T13:53:23;3.00;;;1.45;;
75772;SDS011;64381;0.000;0.000;2023-04-03T13:55:54;2.83;;;1.40;;
75772;SDS011;64381;0.000;0.000;2023-04-03T13:58:30;3.23;;;1.60;;
75772;SDS011;64381;0.000;0.000;2023-04-03T14:01:17;3.28;;;1.48;;
75772;SDS011;64381;0.000;0.000;2023-04-03T14:03:45;2.95;;;1.60;;
75772;SDS011;64381;0.000;0.000;2023-04-03T14:06:11;3.00;;;1.60;;
75772;SDS011;64381;0.000;0.000;2023-04-03T14:08:39;2.92;;;1.48;;
75772;SDS011;64381;0.000;0.000;2023-04-03T14:11:05;3.40;;;1.50;;
75772;SDS011;64381;0.000;0.000;2023-04-03T14:13:30;3.00;;;1.50;;
75772;SDS011;64381;0.000;0.000;2023-04-03T14:15:56;2.90;;;1.53;;
75772;SDS011;64381;0.000;0.000;2023-04-03T14:18:21;2.93;;;1.53;;
75772;SDS011;64381;0.000;0.000;2023-04-03T14:20:47;2.90;;;1.40;;
75772;SDS011;64381;0.000;0.000;2023-04-03T14:23:13;2.93;;;1.33;;
75772;SDS011;64381;0.000;0.000;2023-04-03T14:25:39;3.10;;;1.60;;
75772;SDS011;64381;0.000;0.000;2023-04-03T14:28:18;2.80;;;1.30;;
75772;SDS011;64381;0.000;0.000;2023-04-03T14:30:46;2.97;;;1.38;;
75772;SDS011;64381;0.000;0.000;2023-04-03T14:33:16;3.03;;;1.40;;
75772;SDS011;64381;0.000;0.000;2023-04-03T14:35:43;3.00;;;1.50;;
75772;SDS011;64381;0.000;0.000;2023-04-03T14:38:20;2.83;;;1.40;;
75772;SDS011;64381;0.000;0.000;2023-04-03T14:40:48;3.00;;;1.40;;
75772;SDS011;64381;0.000;0.000;2023-04-03T14:43:14;2.70;;;1.40;;
75772;SDS011;64381;0.000;0.000;2023-04-03T14:45:39;2.83;;;1.27;;
75772;SDS011;64381;0.000;0.000;2023-04-03T14:48:04;3.33;;;1.30;;
75772;SDS011;64381;0.000;0.000;2023-04-03T14:50:34;2.97;;;1.40;;
75772;SDS011;64381;0.000;0.000;2023-04-03T14:52:59;2.90;;;1.40;;
75772;SDS011;64381;0.000;0.000;2023-04-03T14:55:25;3.17;;;1.30;;
75772;SDS011;64381;0.000;0.000;2023-04-03T14:57:51;3.20;;;1.50;;
75772;SDS011;64381;0.000;0.000;2023-04-03T15:00:18;3.47;;;1.58;;
75772;SDS011;64381;0.000;0.000;2023-04-03T15:02:45;3.25;;;1.50;;
75772;SDS011;64381;0.000;0.000;2023-04-03T15:05:11;2.97;;;1.33;;
75772;SDS011;64381;0.000;0.000;2023-04-03T15:07:38;2.85;;;1.35;;
75772;SDS011;64381;0.000;0.000;2023-04-03T15:12:42;3.17;;;1.50;;
75772;SDS011;64381;0.000;0.000;2023-04-03T15:15:08;3.50;;;1.50;;
75772;SDS011;64381;0.000;0.000;2023-04-03T15:17:34;2.88;;;1.25;;
75772;SDS011;64381;0.000;0.000;2023-04-03T15:20:00;3.67;;;1.30;;
75772;SDS011;64381;0.000;0.000;2023-04-03T15:22:26;2.78;;;1.35;;
75772;SDS011;64381;0.000;0.000;2023-04-03T15:24:51;2.97;;;1.30;;
75772;SDS011;64381;0.000;0.000;2023-04-03T15:27:18;2.92;;;1.40;;
75772;SDS011;64381;0.000;0.000;2023-04-03T15:29:43;3.07;;;1.40;;
75772;SDS011;64381;0.000;0.000;2023-04-03T15:32:09;3.00;;;1.42;;
75772;SDS011;64381;0.000;0.000;2023-04-03T15:34:35;2.70;;;1.30;;
75772;SDS011;64381;0.000;0.000;2023-04-03T15:37:01;3.10;;;1.50;;
75772;SDS011;64381;0.000;0.000;2023-04-03T15:39:26;3.00;;;1.40;;
75772;SDS011;64381;0.000;0.000;2023-04-03T15:41:52;3.67;;;1.58;;
75772;SDS011;64381;0.000;0.000;2023-04-03T15:44:18;3.10;;;1.50;;
75772;SDS011;64381;0.000;0.000;2023-04-03T15:46:44;2.80;;;1.40;;
75772;SDS011;64381;0.000;0.000;2023-04-03T15:49:13;2.80;;;1.40;;
75772;SDS011;64381;0.000;0.000;2023-04-03T15:51:38;3.13;;;1.47;;
75772;SDS011;64381;0.000;0.000;2023-04-03T15:54:03;2.97;;;1.43;;
75772;SDS011;64381;0.000;0.000;2023-04-03T15:56:29;2.88;;;1.40;;
75772;SDS011;64381;0.000;0.000;2023-04-03T15:58:54;2.80;;;1.40;;
75772;SDS011;64381;0.000;0.000;2023-04-03T16:01:19;5.03;;;1.27;;
75772;SDS011;64381;0.000;0.000;2023-04-03T16:03:45;6.30;;;2.37;;
75772;SDS011;64381;0.000;0.000;2023-04-03T16:06:19;19.43;;;2.73;;
75772;SDS011;64381;0.000;0.000;2023-04-03T16:08:45;10.30;;;2.30;;
75772;SDS011;64381;0.000;0.000;2023-04-03T16:11:12;11.27;;;2.23;;
75772;SDS011;64381;0.000;0.000;2023-04-03T16:13:37;10.07;;;2.80;;